Historyczne dane pomiarowe

Dodano dane terminowe – wersja testowa.

Dane z okresu 1951-2019

Wersja bazy: 1.34 [2019-03-16, lista zmian], aktualizacja planowana na 2019-04-15

Dane meteo z obszaru Polski uzyskane na podstawie danych udostępnionych przez Instytut Meteorologii i Gospodarki Wodnej – Państwowy Instytut Badawczy.

 

Wybierz Datę:    

       

TemperaturaWilgotnośćWiatrCiśnienieOpadyŚniegCzas trwania zjawisk
 Stacja t tx tn tng RH VA  wxwx mslp ppp RRR   cm mm wxwxwxwxwxwxwx
1956-10-10 6.3 16.4 -1.1 -5.8 94.5- 1.3 1.0---- 0.0------------
1956-10-09 7.4 9.0 2.3 -0.8 94.3- 5.3 2.7---- 0.0------------
1956-10-08 5.8 9.8 3.3 -0.5 91.8- 3.3 3.0---- 0.7------------
1956-10-07 6.6 9.3 5.6 4.6 85.5- 6.3 6.0---- 0.3------------
1956-10-06 6.4 7.6 4.6 0.6 93.8- 8.0 3.0---- 12.5------------
1956-10-05 8.5 14.0 5.5 3.7 96.5- 5.3 0.0---- 2.7------------
1956-10-04 9.8 15.5 6.1 1.3 92.0- 6.0 2.3---- 0.5------------
1956-10-03 13.0 17.0 10.1 5.2 90.8- 4.0 2.7---- 0.6------------
1956-10-02 16.3 26.4 9.0 4.7 85.8- 1.7 1.7---- 0.0------------
1956-10-01 15.6 24.2 7.4 2.3 85.5- 2.7 1.3---- 0.0------------
1956-09-30 11.8 18.0 8.1 2.5 92.0- 2.0 1.3---- 0.0------------
1956-09-29 14.2 18.2 11.6 12.7 89.5- 3.7 2.0---- 0.0------------
1956-09-28 15.6 19.0 10.9 5.2 88.3- 6.0 3.0---- 0.2------------
1956-09-27 15.8 24.4 11.3 5.1 93.5- 0.3 1.3---- 0.0------------
1956-09-26 15.8 24.3 8.8 3.3 67.8- 0.0 3.0---- 0.0------------
1956-09-25 12.0 20.9 2.6 -2.2 81.5- 0.0 1.0---- 0.0------------
1956-09-24 9.0 16.5 3.8 0.5 65.8- 0.0 2.0---- 0.0------------
1956-09-23 11.3 19.0 7.4 3.2 79.0- 0.0 1.0---- 0.0------------
1956-09-22 11.6 20.0 4.9 0.6 82.3- 0.0 1.0---- 0.0------------
1956-09-21 11.0 19.0 4.6 -0.7 83.0- 0.0 0.3---- 0.0------------
1956-09-20 9.9 19.0 3.4 -1.2 83.3- 0.3 1.0---- 0.0------------
1956-09-19 9.1 18.0 2.5 -0.7 87.8- 0.0 0.3---- 0.0------------
1956-09-18 9.6 15.0 5.1 0.1 90.0- 1.3 1.0---- 0.0------------
1956-09-17 9.2 14.5 6.8 5.8 93.5- 4.0 4.3---- 0.4------------
1956-09-16 10.8 15.0 5.9 0.7 79.3- 5.3 3.3---- 0.0------------
1956-09-15 11.6 16.0 6.7 2.7 75.3- 4.0 1.7---- 0.0------------
1956-09-14 11.0 17.0 5.1 0.8 91.3- 2.0 0.7---- 0.0------------
1956-09-13 10.8 15.4 7.7 5.2 87.0- 5.3 5.0---- 2.2------------
1956-09-12 11.5 15.5 8.6 11.6 89.5- 5.3 4.0---- 2.4------------
1956-09-11 14.4 19.0 12.9 7.2 97.0- 6.0 0.0---- 8.6------------
1956-09-10 15.0 19.8 7.1 4.4 90.8- 6.7 0.3---- 9.4------------
1956-09-09 15.3 19.6 9.8 5.2 94.8- 5.7 0.3---- 0.0------------
1956-09-08 15.6 21.4 10.3 5.2 94.3- 2.7 0.0---- 2.5------------
1956-09-07 15.5 20.4 11.5 6.9 92.5- 4.7 1.0---- 2.5------------
1956-09-06 15.0 22.9 7.6 3.7 80.0- 0.0 0.7---- 0.0------------
1956-09-05 13.8 20.4 9.1 5.2 87.8- 1.3 1.0---- 0.0------------
1956-09-04 14.2 20.4 13.2 12.6 94.8- 8.0 2.0---- 0.1------------
1956-09-03 20.3 25.9 11.6 7.2 78.8- 0.7 2.0---- 1.6------------
1956-09-02 18.1 24.4 15.0 9.1 85.0- 0.7 0.7---- 0.0------------
1956-09-01 15.4 21.4 7.3 4.7 92.3- 5.3 0.3---- 0.0------------
1956-08-31 13.2 18.0 9.7 6.4 90.8- 5.7 1.3---- 0.0------------
1956-08-30 11.8 16.0 10.6 12.6 97.0- 5.3 4.3---- 4.8------------
1956-08-29 16.8 21.4 13.6 9.6 79.0- 4.0 1.3---- 45.5------------
1956-08-28 18.9 24.4 16.3 14.2 73.3- 5.7 4.0---- 0.0------------
1956-08-27 18.4 24.9 9.8 5.2 79.0- 2.7 1.0---- 0.0------------
1956-08-26 14.8 20.9 9.1 6.7 77.8- 1.3 5.0---- 0.0------------
1956-08-25 13.7 17.5 9.6 7.2 74.8- 3.0 8.0---- 0.0------------
1956-08-24 11.2 17.0 9.6 9.1 91.8- 6.0 4.7---- 0.6------------
1956-08-23 11.9 15.0 11.3 9.1 95.5- 8.0 3.0---- 44.2------------
1956-08-22 15.0 20.9 8.8 4.7 91.8- 3.7 1.3---- 0.0------------
1956-08-21 14.7 19.5 12.1 8.6 90.0- 6.3 1.0---- 0.0------------
1956-08-20 17.0 22.4 11.8 8.4 78.0- 2.3 4.0---- 0.0------------
1956-08-19 18.0 23.9 15.1 11.6 85.0- 3.0 3.0---- 0.0------------
1956-08-18 17.8 22.9 12.1 12.6 87.8- 4.7 1.3---- 0.0------------
1956-08-17 15.5 20.0 13.1 11.1 94.5- 7.0 4.0---- 5.2------------
1956-08-16 13.2 15.0 8.6 5.2 86.5- 8.0 4.0---- 4.4------------
1956-08-15 14.2 19.5 10.1 6.2 76.3- 4.0 6.0---- 0.2------------
1956-08-14 17.2 25.9 10.6 7.2 82.8- 5.3 1.7---- 2.3------------
1956-08-13 14.6 20.9 9.8 6.7 83.3- 2.3 2.3---- 0.0------------
1956-08-12 12.6 16.0 11.7 11.6 93.8- 5.3 1.0---- 0.8------------
304.8 ms

 

Źródłem pochodzenia danych jest Instytut Meteorologii i Gospodarki Wodnej – Państwowy Instytut Badawczy. Dane Instytutu Meteorologii i Gospodarki Wodnej – Państwowego Instytutu Badawczego zostały przetworzone.

Dane źródłowe można odnaleźć na stronie https://dane.imgw.pl